< < Back
Terminal Aerodrome Forecast


Current Version              Previous Versions:   1  2  3  4  5  6  7  8  9  

Terminal Aerodrome Forecast

169
FTUS42 KGSP 282101 AAA
TAFAVL
TAF AMD
KAVL 282101Z 2821/2918 36011KT P6SM SKC
     FM290000 34006KT P6SM SKC
     FM291400 16003KT P6SM SKC=

Latest METAR

498
SAUS70 KWBC 291700 RRD
MTRAVL
METAR KAVL 291654Z 20008KT 10SM CLR 09/M12 A3032 RMK AO2 SLP272
T00891122


USA.gov is the U.S. government's official web portal to all federal, state and local government web resources and services.